Terminal Aerodrome Forecast
Issued by NWS

Home | Current Version | Previous Version | Graphics & Text | Print | Product List | Glossary Off
Versions: 1 2 3 4 5 6 7 8 9 10 11 12 13 14 15 16

000
FTUS43 KGRB 270520
TAFMTW
TAF
KMTW 270520Z 2706/2806 26004KT P6SM SCT050 SCT090
      TEMPO 2708/2712 4SM BR
     FM271500 28008KT P6SM FEW070
     FM272000 21008KT P6SM SKC
     FM280000 22008KT P6SM FEW200=

USA.gov is the U.S. government's official web portal to all federal, state and local government web resources and services.